sensor_id;sensor_type;location;lat;lon;timestamp;pressure;altitude;pressure_sealevel;temperature;humidity
12759;BME280;20944;47.048;15.390;2023-03-13T00:01:45;97582.81;;;3.30;76.32
12759;BME280;20944;47.048;15.390;2023-03-13T00:04:15;97600.91;;;3.33;76.51
12759;BME280;20944;47.048;15.390;2023-03-13T00:06:43;97564.66;;;3.11;76.26
12759;BME280;20944;47.048;15.390;2023-03-13T00:09:14;97570.72;;;3.30;75.88
12759;BME280;20944;47.048;15.390;2023-03-13T00:11:43;97599.19;;;3.35;75.87
12759;BME280;20944;47.048;15.390;2023-03-13T00:14:12;97583.69;;;3.27;75.96
12759;BME280;20944;47.048;15.390;2023-03-13T00:16:40;97597.47;;;3.24;76.22
12759;BME280;20944;47.048;15.390;2023-03-13T00:19:08;97600.94;;;3.22;77.38
12759;BME280;20944;47.048;15.390;2023-03-13T00:21:38;97567.25;;;3.01;76.61
12759;BME280;20944;47.048;15.390;2023-03-13T00:24:09;96740.75;;;-1.88;75.61
12759;BME280;20944;47.048;15.390;2023-03-13T00:26:37;97612.97;;;3.20;76.90
12759;BME280;20944;47.048;15.390;2023-03-13T00:29:06;97617.31;;;3.18;76.74
12759;BME280;20944;47.048;15.390;2023-03-13T00:31:34;97550.81;;;2.68;77.61
12759;BME280;20944;47.048;15.390;2023-03-13T00:34:02;97616.44;;;3.10;77.77
12759;BME280;20944;47.048;15.390;2023-03-13T00:36:32;97608.69;;;3.22;77.28
12759;BME280;20944;47.048;15.390;2023-03-13T00:39:03;97614.69;;;3.13;77.58
12759;BME280;20944;47.048;15.390;2023-03-13T00:41:32;97480.06;;;2.35;77.78
12759;BME280;20944;47.048;15.390;2023-03-13T00:44:01;97583.63;;;2.93;78.08
12759;BME280;20944;47.048;15.390;2023-03-13T00:46:30;97592.25;;;2.94;78.23
12759;BME280;20944;47.048;15.390;2023-03-13T00:48:58;97606.97;;;3.09;78.28
12759;BME280;20944;47.048;15.390;2023-03-13T00:51:26;97590.56;;;3.14;78.04
12759;BME280;20944;47.048;15.390;2023-03-13T00:53:56;97594.88;;;3.09;78.59
12759;BME280;20944;47.048;15.390;2023-03-13T00:56:28;97437.81;;;2.09;78.01
12759;BME280;20944;47.048;15.390;2023-03-13T00:58:58;97597.47;;;3.24;77.67
12759;BME280;20944;47.048;15.390;2023-03-13T01:01:27;97587.97;;;3.19;77.80
12759;BME280;20944;47.048;15.390;2023-03-13T01:03:58;97579.34;;;3.26;77.07
12759;BME280;20944;47.048;15.390;2023-03-13T01:06:28;97411.13;;;2.24;77.18
12759;BME280;20944;47.048;15.390;2023-03-13T01:08:57;97445.59;;;2.35;77.69
12759;BME280;20944;47.048;15.390;2023-03-13T01:11:28;97579.34;;;3.18;78.03
12759;BME280;20944;47.048;15.390;2023-03-13T01:13:58;97568.97;;;2.92;78.18
12759;BME280;20944;47.048;15.390;2023-03-13T01:16:28;97571.56;;;3.24;77.93
12759;BME280;20944;47.048;15.390;2023-03-13T01:19:00;97574.16;;;3.15;77.06
12759;BME280;20944;47.048;15.390;2023-03-13T01:21:29;97571.56;;;3.00;78.30
12759;BME280;20944;47.048;15.390;2023-03-13T01:23:57;97510.25;;;2.47;78.93
12759;BME280;20944;47.048;15.390;2023-03-13T01:26:29;97572.38;;;2.82;79.05
12759;BME280;20944;47.048;15.390;2023-03-13T01:28:57;97571.53;;;2.73;79.77
12759;BME280;20944;47.048;15.390;2023-03-13T01:31:27;97582.72;;;2.70;80.17
12759;BME280;20944;47.048;15.390;2023-03-13T01:33:58;97536.09;;;2.41;80.28
12759;BME280;20944;47.048;15.390;2023-03-13T01:36:26;97506.72;;;2.16;80.73
12759;BME280;20944;47.048;15.390;2023-03-13T01:38:56;97568.91;;;2.63;81.19
12759;BME280;20944;47.048;15.390;2023-03-13T01:41:27;97436.84;;;1.78;80.96
12759;BME280;20944;47.048;15.390;2023-03-13T01:43:56;97574.06;;;2.57;80.86
12759;BME280;20944;47.048;15.390;2023-03-13T01:46:25;97577.53;;;2.67;80.98
12759;BME280;20944;47.048;15.390;2023-03-13T01:48:58;97551.66;;;2.61;80.36
12759;BME280;20944;47.048;15.390;2023-03-13T01:51:29;97570.63;;;2.58;81.35
12759;BME280;20944;47.048;15.390;2023-03-13T01:54:03;97549.06;;;2.46;81.69
12759;BME280;20944;47.048;15.390;2023-03-13T01:56:37;97542.16;;;2.48;81.62
12759;BME280;20944;47.048;15.390;2023-03-13T01:59:08;97570.66;;;2.70;80.48
12759;BME280;20944;47.048;15.390;2023-03-13T02:01:37;97574.09;;;2.66;80.45
12759;BME280;20944;47.048;15.390;2023-03-13T02:04:06;97383.34;;;1.42;81.40
12759;BME280;20944;47.048;15.390;2023-03-13T02:06:36;97568.84;;;2.39;82.15
12759;BME280;20944;47.048;15.390;2023-03-13T02:09:08;97516.22;;;2.14;81.99
12759;BME280;20944;47.048;15.390;2023-03-13T02:11:45;97571.44;;;2.39;82.41
12759;BME280;20944;47.048;15.390;2023-03-13T02:14:15;97563.69;;;2.48;82.16
12759;BME280;20944;47.048;15.390;2023-03-13T02:16:46;97533.44;;;2.20;82.74
12759;BME280;20944;47.048;15.390;2023-03-13T02:19:19;97559.31;;;2.29;83.13
12759;BME280;20944;47.048;15.390;2023-03-13T02:21:54;97555.03;;;2.31;82.78
12759;BME280;20944;47.048;15.390;2023-03-13T02:24:31;97527.44;;;2.22;82.12
12759;BME280;20944;47.048;15.390;2023-03-13T02:27:04;97545.56;;;2.33;81.88
12759;BME280;20944;47.048;15.390;2023-03-13T02:29:32;97543.81;;;2.30;82.00
12759;BME280;20944;47.048;15.390;2023-03-13T02:32:00;97551.56;;;2.21;82.37
12759;BME280;20944;47.048;15.390;2023-03-13T02:34:31;97511.81;;;1.99;82.83
12759;BME280;20944;47.048;15.390;2023-03-13T02:37:02;97542.94;;;2.22;82.89
12759;BME280;20944;47.048;15.390;2023-03-13T02:39:33;97545.53;;;2.24;83.06
12759;BME280;20944;47.048;15.390;2023-03-13T02:42:04;97533.41;;;2.10;83.19
12759;BME280;20944;47.048;15.390;2023-03-13T02:44:37;97527.31;;;1.93;84.34
12759;BME280;20944;47.048;15.390;2023-03-13T02:47:06;97522.19;;;2.02;83.75
12759;BME280;20944;47.048;15.390;2023-03-13T02:49:35;97532.47;;;1.95;84.48
12759;BME280;20944;47.048;15.390;2023-03-13T02:52:10;97531.63;;;2.00;84.38
12759;BME280;20944;47.048;15.390;2023-03-13T02:54:40;97537.63;;;1.93;84.64
12759;BME280;20944;47.048;15.390;2023-03-13T02:57:10;97522.16;;;1.99;84.88
12759;BME280;20944;47.048;15.390;2023-03-13T02:59:38;97543.72;;;2.01;84.14
12759;BME280;20944;47.048;15.390;2023-03-13T03:02:06;97525.63;;;1.95;84.19
12759;BME280;20944;47.048;15.390;2023-03-13T03:04:35;97521.31;;;2.00;84.23
12759;BME280;20944;47.048;15.390;2023-03-13T03:07:03;97532.59;;;2.22;83.82
12759;BME280;20944;47.048;15.390;2023-03-13T03:09:32;97485.94;;;1.88;83.75
12759;BME280;20944;47.048;15.390;2023-03-13T03:12:00;97531.66;;;2.06;84.61
12759;BME280;20944;47.048;15.390;2023-03-13T03:14:30;97511.75;;;1.81;85.35
12759;BME280;20944;47.048;15.390;2023-03-13T03:16:58;97528.19;;;1.95;85.34
12759;BME280;20944;47.048;15.390;2023-03-13T03:19:26;97522.16;;;1.99;85.24
12759;BME280;20944;47.048;15.390;2023-03-13T03:21:54;97494.56;;;1.86;85.41
12759;BME280;20944;47.048;15.390;2023-03-13T03:24:22;97505.75;;;1.86;85.58
12759;BME280;20944;47.048;15.390;2023-03-13T03:26:50;97515.28;;;1.95;85.65
12759;BME280;20944;47.048;15.390;2023-03-13T03:29:19;97518.69;;;1.94;86.31
12759;BME280;20944;47.048;15.390;2023-03-13T03:31:48;97510.94;;;1.94;85.56
12759;BME280;20944;47.048;15.390;2023-03-13T03:34:17;97507.53;;;1.98;84.88
12759;BME280;20944;47.048;15.390;2023-03-13T03:36:45;97508.41;;;2.02;84.84
12759;BME280;20944;47.048;15.390;2023-03-13T03:39:13;97521.25;;;1.88;85.59
12759;BME280;20944;47.048;15.390;2023-03-13T03:41:41;97480.63;;;1.55;85.10
12759;BME280;20944;47.048;15.390;2023-03-13T03:44:09;97515.28;;;1.95;85.70
12759;BME280;20944;47.048;15.390;2023-03-13T03:46:38;97500.63;;;1.89;85.50
12759;BME280;20944;47.048;15.390;2023-03-13T03:49:07;97510.81;;;1.70;85.16
12759;BME280;20944;47.048;15.390;2023-03-13T03:51:36;97490.03;;;1.39;85.54
12759;BME280;20944;47.048;15.390;2023-03-13T03:54:04;97481.44;;;1.43;86.63
12759;BME280;20944;47.048;15.390;2023-03-13T03:56:32;97377.75;;;0.64;87.05
12759;BME280;20944;47.048;15.390;2023-03-13T03:59:00;97484.72;;;1.15;87.99
12759;BME280;20944;47.048;15.390;2023-03-13T04:01:28;97412.16;;;0.67;88.92
12759;BME280;20944;47.048;15.390;2023-03-13T04:03:56;97508.09;;;1.39;88.50
12759;BME280;20944;47.048;15.390;2023-03-13T04:06:26;97512.41;;;1.42;88.55
12759;BME280;20944;47.048;15.390;2023-03-13T04:08:54;97508.91;;;1.38;89.26
12759;BME280;20944;47.048;15.390;2023-03-13T04:11:22;97506.38;;;1.44;88.92
12759;BME280;20944;47.048;15.390;2023-03-13T04:13:50;97509.03;;;1.52;89.25
12759;BME280;20944;47.048;15.390;2023-03-13T04:16:19;97507.34;;;1.58;88.91
12759;BME280;20944;47.048;15.390;2023-03-13T04:18:47;97516.84;;;1.64;88.99
12759;BME280;20944;47.048;15.390;2023-03-13T04:21:15;97519.44;;;1.66;88.88
12759;BME280;20944;47.048;15.390;2023-03-13T04:23:45;97491.84;;;1.61;88.50
12759;BME280;20944;47.048;15.390;2023-03-13T04:26:13;97514.34;;;1.84;88.14
12759;BME280;20944;47.048;15.390;2023-03-13T04:28:41;97493.66;;;1.79;86.73
12759;BME280;20944;47.048;15.390;2023-03-13T04:31:09;97518.69;;;1.91;85.84
12759;BME280;20944;47.048;15.390;2023-03-13T04:33:37;97516.91;;;1.76;87.16
12759;BME280;20944;47.048;15.390;2023-03-13T04:36:06;97504.75;;;1.61;87.71
12759;BME280;20944;47.048;15.390;2023-03-13T04:38:34;97503.88;;;1.52;88.61
12759;BME280;20944;47.048;15.390;2023-03-13T04:41:04;97522.81;;;1.54;89.40
12759;BME280;20944;47.048;15.390;2023-03-13T04:43:32;97496.91;;;1.43;89.49
12759;BME280;20944;47.048;15.390;2023-03-13T04:46:00;97503.78;;;1.44;89.34
12759;BME280;20944;47.048;15.390;2023-03-13T04:48:28;97487.41;;;1.33;88.45
12759;BME280;20944;47.048;15.390;2023-03-13T04:50:56;97491.78;;;1.49;87.81
12759;BME280;20944;47.048;15.390;2023-03-13T04:53:24;97455.59;;;1.37;87.98
12759;BME280;20944;47.048;15.390;2023-03-13T04:55:53;97516.00;;;1.70;88.33
12759;BME280;20944;47.048;15.390;2023-03-13T04:58:22;97511.66;;;1.62;88.92
12759;BME280;20944;47.048;15.390;2023-03-13T05:00:51;97494.34;;;1.42;90.12
12759;BME280;20944;47.048;15.390;2023-03-13T05:03:20;97491.75;;;1.43;89.82
12759;BME280;20944;47.048;15.390;2023-03-13T05:05:48;97514.19;;;1.56;89.88
12759;BME280;20944;47.048;15.390;2023-03-13T05:08:17;97494.38;;;1.46;90.68
12759;BME280;20944;47.048;15.390;2023-03-13T05:10:45;97491.78;;;1.49;91.56
12759;BME280;20944;47.048;15.390;2023-03-13T05:13:14;97510.78;;;1.60;91.22
12759;BME280;20944;47.048;15.390;2023-03-13T05:15:43;97509.09;;;1.66;91.84
12759;BME280;20944;47.048;15.390;2023-03-13T05:18:12;97484.97;;;1.57;91.27
12759;BME280;20944;47.048;15.390;2023-03-13T05:20:40;97500.53;;;1.73;91.55
12759;BME280;20944;47.048;15.390;2023-03-13T05:23:08;97352.97;;;0.87;90.28
12759;BME280;20944;47.048;15.390;2023-03-13T05:25:36;97503.13;;;1.82;90.13
12759;BME280;20944;47.048;15.390;2023-03-13T05:28:04;97491.09;;;1.87;88.26
12759;BME280;20944;47.048;15.390;2023-03-13T05:30:33;97468.69;;;1.72;87.97
12759;BME280;20944;47.048;15.390;2023-03-13T05:33:02;97492.81;;;1.79;89.73
12759;BME280;20944;47.048;15.390;2023-03-13T05:35:31;97490.22;;;1.80;88.83
12759;BME280;20944;47.048;15.390;2023-03-13T05:37:59;97490.16;;;1.70;89.85
12759;BME280;20944;47.048;15.390;2023-03-13T05:40:27;97497.09;;;1.71;89.73
12759;BME280;20944;47.048;15.390;2023-03-13T05:42:56;97499.69;;;1.81;89.19
12759;BME280;20944;47.048;15.390;2023-03-13T05:45:25;97487.69;;;1.94;88.55
12759;BME280;20944;47.048;15.390;2023-03-13T05:47:53;97492.00;;;1.92;88.81
12759;BME280;20944;47.048;15.390;2023-03-13T05:50:22;97500.59;;;1.83;88.56
12759;BME280;20944;47.048;15.390;2023-03-13T05:52:51;97439.31;;;1.53;88.99
12759;BME280;20944;47.048;15.390;2023-03-13T05:55:19;97325.47;;;0.86;89.15
12759;BME280;20944;47.048;15.390;2023-03-13T05:57:47;97498.03;;;1.93;89.48
12759;BME280;20944;47.048;15.390;2023-03-13T06:00:16;97496.34;;;1.98;88.52
12759;BME280;20944;47.048;15.390;2023-03-13T06:02:45;97469.53;;;1.73;88.51
12759;BME280;20944;47.048;15.390;2023-03-13T06:05:13;97456.59;;;1.67;89.77
12759;BME280;20944;47.048;15.390;2023-03-13T06:07:42;97492.06;;;2.01;89.41
12759;BME280;20944;47.048;15.390;2023-03-13T06:10:11;97479.16;;;2.10;89.25
12759;BME280;20944;47.048;15.390;2023-03-13T06:12:39;97469.69;;;2.25;88.60
12759;BME280;20944;47.048;15.390;2023-03-13T06:15:08;97465.44;;;2.51;87.58
12759;BME280;20944;47.048;15.390;2023-03-13T06:17:38;97489.59;;;2.94;86.46
12759;BME280;20944;47.048;15.390;2023-03-13T06:20:07;97487.03;;;3.08;85.62
12759;BME280;20944;47.048;15.390;2023-03-13T06:22:35;97468.03;;;3.05;85.51
12759;BME280;20944;47.048;15.390;2023-03-13T06:25:06;97487.00;;;3.25;84.64
12759;BME280;20944;47.048;15.390;2023-03-13T06:27:34;97450.75;;;3.27;83.54
12759;BME280;20944;47.048;15.390;2023-03-13T06:30:03;97491.28;;;3.49;83.60
12759;BME280;20944;47.048;15.390;2023-03-13T06:32:31;97487.81;;;3.55;83.71
12759;BME280;20944;47.048;15.390;2023-03-13T06:35:00;97482.59;;;3.62;83.48
12759;BME280;20944;47.048;15.390;2023-03-13T06:37:28;97495.56;;;3.65;82.62
12759;BME280;20944;47.048;15.390;2023-03-13T06:39:56;97494.66;;;3.75;82.18
12759;BME280;20944;47.048;15.390;2023-03-13T06:42:25;97493.78;;;3.81;81.84
12759;BME280;20944;47.048;15.390;2023-03-13T06:44:53;97490.34;;;3.74;82.59
12759;BME280;20944;47.048;15.390;2023-03-13T06:47:21;97469.69;;;3.50;83.17
12759;BME280;20944;47.048;15.390;2023-03-13T06:49:49;97469.66;;;3.56;82.98
12759;BME280;20944;47.048;15.390;2023-03-13T06:52:18;97480.88;;;3.66;82.07
12759;BME280;20944;47.048;15.390;2023-03-13T06:54:48;97477.44;;;3.65;82.61
12759;BME280;20944;47.048;15.390;2023-03-13T06:57:17;97477.38;;;3.79;82.37
12759;BME280;20944;47.048;15.390;2023-03-13T06:59:46;97479.06;;;3.91;82.36
12759;BME280;20944;47.048;15.390;2023-03-13T07:02:15;97482.47;;;4.03;81.42
12759;BME280;20944;47.048;15.390;2023-03-13T07:04:43;97484.19;;;4.01;81.52
12759;BME280;20944;47.048;15.390;2023-03-13T07:07:12;97456.53;;;4.00;80.73
12759;BME280;20944;47.048;15.390;2023-03-13T07:09:55;97470.25;;;4.24;80.20
12759;BME280;20944;47.048;15.390;2023-03-13T07:12:23;97476.28;;;4.30;80.70
12759;BME280;20944;47.048;15.390;2023-03-13T07:14:53;97473.66;;;4.37;80.85
12759;BME280;20944;47.048;15.390;2023-03-13T07:17:21;97453.84;;;4.25;81.13
12759;BME280;20944;47.048;15.390;2023-03-13T07:19:49;97452.91;;;4.37;81.68
12759;BME280;20944;47.048;15.390;2023-03-13T07:22:17;97463.97;;;4.58;80.89
12759;BME280;20944;47.048;15.390;2023-03-13T07:24:46;97470.84;;;4.72;81.11
12759;BME280;20944;47.048;15.390;2023-03-13T07:27:16;97475.09;;;4.80;79.10
12759;BME280;20944;47.048;15.390;2023-03-13T07:29:46;97463.81;;;4.81;78.15
12759;BME280;20944;47.048;15.390;2023-03-13T07:32:16;97471.69;;;4.71;79.59
12759;BME280;20944;47.048;15.390;2023-03-13T07:34:44;97424.34;;;4.41;80.91
12759;BME280;20944;47.048;15.390;2023-03-13T07:37:13;97460.47;;;4.67;80.40
12759;BME280;20944;47.048;15.390;2023-03-13T07:39:42;97449.09;;;4.83;79.35
12759;BME280;20944;47.048;15.390;2023-03-13T07:42:10;97456.00;;;4.86;79.23
12759;BME280;20944;47.048;15.390;2023-03-13T07:44:39;97418.81;;;4.82;77.44
12759;BME280;20944;47.048;15.390;2023-03-13T07:47:07;97453.19;;;5.12;76.60
12759;BME280;20944;47.048;15.390;2023-03-13T07:49:37;97442.75;;;5.18;77.39
12759;BME280;20944;47.048;15.390;2023-03-13T07:52:09;97443.38;;;5.40;77.94
12759;BME280;20944;47.048;15.390;2023-03-13T07:54:37;97381.22;;;5.25;77.24
12759;BME280;20944;47.048;15.390;2023-03-13T07:57:05;97427.44;;;5.72;76.85
12759;BME280;20944;47.048;15.390;2023-03-13T07:59:34;97368.97;;;5.36;76.45
12759;BME280;20944;47.048;15.390;2023-03-13T08:02:03;97385.97;;;5.61;75.90
12759;BME280;20944;47.048;15.390;2023-03-13T08:04:31;97400.41;;;5.84;74.75
12759;BME280;20944;47.048;15.390;2023-03-13T08:07:01;97418.38;;;6.05;74.47
12759;BME280;20944;47.048;15.390;2023-03-13T08:09:31;97366.59;;;5.87;73.96
12759;BME280;20944;47.048;15.390;2023-03-13T08:11:59;97423.38;;;6.20;72.86
12759;BME280;20944;47.048;15.390;2023-03-13T08:14:27;97402.88;;;5.99;72.74
12759;BME280;20944;47.048;15.390;2023-03-13T08:16:55;97426.13;;;6.08;73.03
12759;BME280;20944;47.048;15.390;2023-03-13T08:19:24;97383.22;;;5.74;72.99
12759;BME280;20944;47.048;15.390;2023-03-13T08:21:52;97422.72;;;6.05;72.22
12759;BME280;20944;47.048;15.390;2023-03-13T08:24:22;97413.16;;;6.07;73.41
12759;BME280;20944;47.048;15.390;2023-03-13T08:26:50;97420.16;;;6.02;73.31
12759;BME280;20944;47.048;15.390;2023-03-13T08:29:18;97410.69;;;5.98;74.30
12759;BME280;20944;47.048;15.390;2023-03-13T08:31:47;97418.53;;;5.93;73.74
12759;BME280;20944;47.048;15.390;2023-03-13T08:34:17;97422.03;;;5.89;73.21
12759;BME280;20944;47.048;15.390;2023-03-13T08:36:46;97430.75;;;5.83;74.09
12759;BME280;20944;47.048;15.390;2023-03-13T08:39:15;97410.09;;;5.74;74.69
12759;BME280;20944;47.048;15.390;2023-03-13T08:41:46;97423.84;;;5.82;74.77
12759;BME280;20944;47.048;15.390;2023-03-13T08:44:16;97396.19;;;5.77;74.92
12759;BME280;20944;47.048;15.390;2023-03-13T08:46:46;97421.09;;;5.96;74.16
12759;BME280;20944;47.048;15.390;2023-03-13T08:49:15;97415.72;;;6.11;73.38
12759;BME280;20944;47.048;15.390;2023-03-13T08:51:44;97416.44;;;6.22;72.75
12759;BME280;20944;47.048;15.390;2023-03-13T08:54:12;97418.81;;;6.36;72.70
12759;BME280;20944;47.048;15.390;2023-03-13T08:56:40;97409.84;;;6.56;72.29
12759;BME280;20944;47.048;15.390;2023-03-13T08:59:10;97412.13;;;6.75;71.42
12759;BME280;20944;47.048;15.390;2023-03-13T09:01:41;97401.78;;;6.71;70.42
12759;BME280;20944;47.048;15.390;2023-03-13T09:04:09;97405.78;;;6.93;70.99
12759;BME280;20944;47.048;15.390;2023-03-13T09:06:37;97384.09;;;6.91;69.61
12759;BME280;20944;47.048;15.390;2023-03-13T09:09:06;97387.53;;;6.93;71.38
12759;BME280;20944;47.048;15.390;2023-03-13T09:11:35;97394.97;;;7.15;71.50
12759;BME280;20944;47.048;15.390;2023-03-13T09:14:04;97390.03;;;7.46;71.17
12759;BME280;20944;47.048;15.390;2023-03-13T09:16:33;97392.09;;;7.75;69.59
12759;BME280;20944;47.048;15.390;2023-03-13T09:19:02;97376.22;;;7.84;67.67
12759;BME280;20944;47.048;15.390;2023-03-13T09:21:32;97389.47;;;8.15;67.92
12759;BME280;20944;47.048;15.390;2023-03-13T09:24:00;97385.31;;;8.47;67.20
12759;BME280;20944;47.048;15.390;2023-03-13T09:26:29;97241.50;;;7.83;66.64
12759;BME280;20944;47.048;15.390;2023-03-13T09:28:57;97368.69;;;8.86;64.90
12759;BME280;20944;47.048;15.390;2023-03-13T09:31:27;97312.41;;;8.73;65.15
12759;BME280;20944;47.048;15.390;2023-03-13T09:33:58;97360.88;;;9.17;63.75
12759;BME280;20944;47.048;15.390;2023-03-13T09:36:27;97363.25;;;9.27;63.53
12759;BME280;20944;47.048;15.390;2023-03-13T09:38:58;97348.00;;;9.42;63.14
12759;BME280;20944;47.048;15.390;2023-03-13T09:41:31;97288.56;;;9.18;61.90
12759;BME280;20944;47.048;15.390;2023-03-13T09:44:04;97376.66;;;9.78;61.42
12759;BME280;20944;47.048;15.390;2023-03-13T09:46:38;97254.03;;;9.36;59.86
12759;BME280;20944;47.048;15.390;2023-03-13T09:49:13;97323.91;;;9.92;60.71
12759;BME280;20944;47.048;15.390;2023-03-13T09:51:47;97343.63;;;10.04;60.00
12759;BME280;20944;47.048;15.390;2023-03-13T09:54:25;97340.81;;;10.10;59.22
12759;BME280;20944;47.048;15.390;2023-03-13T09:56:57;97350.16;;;10.18;58.83
12759;BME280;20944;47.048;15.390;2023-03-13T09:59:31;97329.97;;;10.22;59.41
12759;BME280;20944;47.048;15.390;2023-03-13T10:02:18;97337.03;;;10.48;58.77
12759;BME280;20944;47.048;15.390;2023-03-13T10:04:52;97302.13;;;10.47;58.88
12759;BME280;20944;47.048;15.390;2023-03-13T10:07:23;97324.69;;;10.78;58.31
12759;BME280;20944;47.048;15.390;2023-03-13T10:09:52;97311.59;;;10.78;56.24
12759;BME280;20944;47.048;15.390;2023-03-13T10:12:23;97319.66;;;10.97;56.10
12759;BME280;20944;47.048;15.390;2023-03-13T10:15:06;97321.88;;;11.09;55.96
12759;BME280;20944;47.048;15.390;2023-03-13T10:17:43;97320.91;;;11.12;55.75
12759;BME280;20944;47.048;15.390;2023-03-13T10:20:23;97338.22;;;10.91;56.02
12759;BME280;20944;47.048;15.390;2023-03-13T10:22:56;97314.78;;;10.86;56.13
12759;BME280;20944;47.048;15.390;2023-03-13T10:25:31;97302.59;;;10.85;55.84
12759;BME280;20944;47.048;15.390;2023-03-13T10:28:00;97308.97;;;11.03;55.09
12759;BME280;20944;47.048;15.390;2023-03-13T10:30:29;97275.03;;;10.98;56.56
12759;BME280;20944;47.048;15.390;2023-03-13T10:32:59;97288.56;;;11.13;55.64
12759;BME280;20944;47.048;15.390;2023-03-13T10:35:34;97295.94;;;11.25;54.86
12759;BME280;20944;47.048;15.390;2023-03-13T10:38:05;97290.44;;;11.32;56.15
12759;BME280;20944;47.048;15.390;2023-03-13T10:40:33;97273.19;;;11.50;55.80
12759;BME280;20944;47.048;15.390;2023-03-13T10:43:04;97242.03;;;11.41;54.71
12759;BME280;20944;47.048;15.390;2023-03-13T10:45:35;97286.97;;;11.79;54.18
12759;BME280;20944;47.048;15.390;2023-03-13T10:48:11;97261.53;;;11.81;54.63
12759;BME280;20944;47.048;15.390;2023-03-13T10:50:43;97269.44;;;12.03;53.89
12759;BME280;20944;47.048;15.390;2023-03-13T10:53:24;97248.44;;;12.03;52.42
12759;BME280;20944;47.048;15.390;2023-03-13T10:55:53;97254.72;;;11.99;52.01
12759;BME280;20944;47.048;15.390;2023-03-13T10:58:25;97228.00;;;11.87;52.08
12759;BME280;20944;47.048;15.390;2023-03-13T11:01:09;97224.25;;;11.95;51.36
12759;BME280;20944;47.048;15.390;2023-03-13T11:03:43;97241.00;;;12.14;51.87
12759;BME280;20944;47.048;15.390;2023-03-13T11:06:30;97242.31;;;12.24;52.14
12759;BME280;20944;47.048;15.390;2023-03-13T11:09:01;97255.16;;;12.10;50.96
12759;BME280;20944;47.048;15.390;2023-03-13T11:11:30;97260.09;;;11.72;51.35
12759;BME280;20944;47.048;15.390;2023-03-13T11:14:13;97248.81;;;11.47;51.98
12759;BME280;20944;47.048;15.390;2023-03-13T11:16:46;97262.91;;;11.44;52.22
12759;BME280;20944;47.048;15.390;2023-03-13T11:19:28;97250.28;;;11.54;53.49
12759;BME280;20944;47.048;15.390;2023-03-13T11:22:25;97253.69;;;11.79;52.29
12759;BME280;20944;47.048;15.390;2023-03-13T11:25:11;97240.72;;;11.98;52.03
12759;BME280;20944;47.048;15.390;2023-03-13T11:27:47;97236.53;;;12.16;51.72
12759;BME280;20944;47.048;15.390;2023-03-13T11:30:24;97227.75;;;12.37;50.86
12759;BME280;20944;47.048;15.390;2023-03-13T11:33:00;97230.34;;;12.59;50.34
12759;BME280;20944;47.048;15.390;2023-03-13T11:35:37;97219.91;;;12.78;50.86
12759;BME280;20944;47.048;15.390;2023-03-13T11:38:15;97215.53;;;12.98;50.20
12759;BME280;20944;47.048;15.390;2023-03-13T11:40:52;97211.88;;;13.02;48.79
12759;BME280;20944;47.048;15.390;2023-03-13T11:43:31;97186.94;;;12.69;49.40
12759;BME280;20944;47.048;15.390;2023-03-13T11:46:31;97212.88;;;12.79;49.53
12759;BME280;20944;47.048;15.390;2023-03-13T11:49:23;97210.56;;;12.71;49.22
12759;BME280;20944;47.048;15.390;2023-03-13T11:52:02;97188.88;;;12.66;48.88
12759;BME280;20944;47.048;15.390;2023-03-13T11:54:55;97173.19;;;12.64;50.03
12759;BME280;20944;47.048;15.390;2023-03-13T11:57:28;97158.88;;;12.90;50.23
12759;BME280;20944;47.048;15.390;2023-03-13T12:00:12;97166.66;;;13.12;46.78
12759;BME280;20944;47.048;15.390;2023-03-13T12:02:47;97181.56;;;13.32;47.52
12759;BME280;20944;47.048;15.390;2023-03-13T12:05:19;97162.34;;;13.30;47.51
12759;BME280;20944;47.048;15.390;2023-03-13T12:07:51;97153.03;;;13.23;48.05
12759;BME280;20944;47.048;15.390;2023-03-13T12:10:25;97166.00;;;13.46;47.07
12759;BME280;20944;47.048;15.390;2023-03-13T12:12:59;97170.16;;;13.50;46.35
12759;BME280;20944;47.048;15.390;2023-03-13T12:15:33;97155.84;;;13.75;46.77
12759;BME280;20944;47.048;15.390;2023-03-13T12:18:08;97158.56;;;14.10;47.24
12759;BME280;20944;47.048;15.390;2023-03-13T12:20:43;97162.41;;;14.20;44.62
12759;BME280;20944;47.048;15.390;2023-03-13T12:23:17;97138.78;;;14.18;46.59
12759;BME280;20944;47.048;15.390;2023-03-13T12:25:51;97146.53;;;14.39;45.20
12759;BME280;20944;47.048;15.390;2023-03-13T12:28:26;97136.50;;;14.47;44.68
12759;BME280;20944;47.048;15.390;2023-03-13T12:31:01;97108.66;;;14.41;44.78
12759;BME280;20944;47.048;15.390;2023-03-13T12:33:34;97133.50;;;14.70;45.95
12759;BME280;20944;47.048;15.390;2023-03-13T12:36:08;97122.69;;;14.92;44.95
12759;BME280;20944;47.048;15.390;2023-03-13T12:38:39;97129.91;;;15.37;43.65
12759;BME280;20944;47.048;15.390;2023-03-13T12:41:17;97054.69;;;15.13;43.35
12759;BME280;20944;47.048;15.390;2023-03-13T12:43:48;97128.50;;;15.15;42.68
12759;BME280;20944;47.048;15.390;2023-03-13T12:46:42;97130.34;;;14.64;44.58
12759;BME280;20944;47.048;15.390;2023-03-13T12:49:45;97120.88;;;14.25;45.04
12759;BME280;20944;47.048;15.390;2023-03-13T12:52:31;97101.13;;;14.34;46.25
12759;BME280;20944;47.048;15.390;2023-03-13T12:55:19;97129.34;;;14.66;45.80
12759;BME280;20944;47.048;15.390;2023-03-13T12:58:19;97065.94;;;14.52;44.86
12759;BME280;20944;47.048;15.390;2023-03-13T13:00:50;97112.00;;;15.11;44.48
12759;BME280;20944;47.048;15.390;2023-03-13T13:03:27;97089.56;;;15.67;44.75
12759;BME280;20944;47.048;15.390;2023-03-13T13:06:04;97080.38;;;16.18;43.23
12759;BME280;20944;47.048;15.390;2023-03-13T13:08:38;97078.84;;;16.44;41.08
12759;BME280;20944;47.048;15.390;2023-03-13T13:20:47;97046.63;;;17.09;38.94
12759;BME280;20944;47.048;15.390;2023-03-13T13:23:30;97041.00;;;17.42;38.98
12759;BME280;20944;47.048;15.390;2023-03-13T13:32:42;97032.16;;;17.96;37.76
12759;BME280;20944;47.048;15.390;2023-03-13T13:35:30;97016.75;;;17.75;36.68